Time;durP1;ratioP1;P1;durP2;ratioP2;P2;SDS_P1;SDS_P2;PMS_P1;PMS_P2;Temp;Humidity;BMP_temperature;BMP_pressure;BME280_temperature;BME280_humidity;BME280_pressure;Samples;Min_cycle;Max_cycle;Signal;HPM_P1;HPM_P2
2021/07/27 00:03:45;;;;;;;7.42;6.83;;;;;;;25.72;58.69;99725.53;1948927;98;25765;-76
2021/07/27 00:07:28;;;;;;;7.53;7.03;;;;;;;25.67;58.70;99721.28;1959890;98;25831;-78
2021/07/27 00:11:04;;;;;;;9.45;6.85;;;;;;;25.65;58.82;99719.19;1980488;96;25954;-81
2021/07/27 00:15:26;;;;;;;8.25;7.08;;;;;;;25.65;58.87;99719.19;1963056;98;26009;-81
2021/07/27 00:18:54;;;;;;;8.93;7.45;;;;;;;25.63;58.85;99720.19;1865154;103;25346;-81
2021/07/27 00:22:39;;;;;;;;;;;;;;;;;;;;;
2021/07/27 00:26:43;;;;;;;;;;;;;;;;;;;;;
2021/07/27 00:30:50;;;;;;;;;;;;;;;;;;;;;
2021/07/27 00:34:44;;;;;;;10.40;8.13;;;;;;;25.56;58.97;99700.08;1835603;105;25899;-81
2021/07/27 00:38:23;;;;;;;8.05;7.25;;;;;;;25.53;58.99;99699.75;1801437;107;26100;-79
2021/07/27 00:42:17;;;;;;;;;;;;;;;;;;;;;
2021/07/27 00:46:01;;;;;;;9.25;8.03;;;;;;;25.51;59.07;99704.77;1795677;106;26009;-79
2021/07/27 00:49:54;;;;;;;8.15;7.35;;;;;;;25.50;59.03;99716.39;1839399;104;25951;-81
2021/07/27 00:53:36;;;;;;;8.20;7.42;;;;;;;25.48;59.04;99720.48;1862415;104;25805;-80
2021/07/27 00:57:11;;;;;;;8.43;7.72;;;;;;;25.28;58.88;99689.42;1871926;103;33079;-80
2021/07/27 01:00:49;;;;;;;;;;;;;;;;;;;;;
2021/07/27 01:04:29;;;;;;;9.00;8.13;;;;;;;25.38;59.13;99698.70;1940699;100;25710;-74
2021/07/27 01:15:44;;;;;;;8.08;7.37;;;;;;;25.36;59.18;99696.57;1857621;104;26482;-75
2021/07/27 01:43:58;;;;;;;8.93;7.95;;;;;;;25.22;59.07;99710.19;1716414;114;25948;-78
2021/07/27 01:47:44;;;;;;;9.05;8.15;;;;;;;25.13;59.24;99718.14;1683738;114;25858;-79
2021/07/27 01:51:21;;;;;;;8.70;7.90;;;;;;;25.04;59.47;99711.42;1655864;118;25839;-75
2021/07/27 01:59:23;;;;;;;8.08;7.35;;;;;;;24.97;59.74;99703.28;1661271;116;25962;-78
2021/07/27 02:02:46;;;;;;;8.58;7.67;;;;;;;24.94;59.82;99699.42;1634639;117;26612;-79
2021/07/27 02:06:18;;;;;;;7.80;7.17;;;;;;;24.91;59.93;99694.26;1648921;117;26072;-79
2021/07/27 02:10:20;;;;;;;8.23;7.62;;;;;;;24.92;59.96;99689.31;1648567;117;26205;-74
2021/07/27 02:13:55;;;;;;;10.72;7.67;;;;;;;24.93;59.90;99686.56;1649416;117;25996;-80
2021/07/27 02:24:11;;;;;;;9.33;7.75;;;;;;;24.88;60.00;99687.73;1695131;115;25646;-80
2021/07/27 02:28:22;;;;;;;8.53;7.65;;;;;;;24.90;59.92;99692.51;1704063;112;25971;-79
2021/07/27 02:32:11;;;;;;;8.13;7.37;;;;;;;24.88;59.92;99698.40;1717264;113;25854;-79
2021/07/27 02:35:36;;;;;;;13.70;7.72;;;;;;;24.89;59.95;99700.98;1720204;113;25966;-80
2021/07/27 02:39:18;;;;;;;9.58;7.55;;;;;;;24.88;59.91;99701.92;1756275;110;25395;-79
2021/07/27 02:42:48;;;;;;;12.10;7.75;;;;;;;24.89;59.92;99707.64;1754331;110;25920;-76
2021/07/27 02:46:45;;;;;;;8.50;7.70;;;;;;;24.90;59.90;99709.84;1770664;109;25819;-77
2021/07/27 02:58:32;;;;;;;12.90;8.25;;;;;;;24.89;59.88;99711.64;1926444;99;25738;-78
2021/07/27 03:02:19;;;;;;;8.85;7.42;;;;;;;24.89;59.92;99711.64;1957327;98;25611;-78
2021/07/27 03:06:05;;;;;;;10.20;7.17;;;;;;;24.92;59.83;99704.84;1947856;99;25783;-76
2021/07/27 03:10:17;;;;;;;10.10;7.70;;;;;;;24.95;59.78;99703.37;1949883;99;25807;-77
2021/07/27 03:13:15;;;;;;;9.33;8.43;;;;;;;24.98;59.72;99697.03;1929881;101;25828;-77
2021/07/27 03:17:14;;;;;;;10.93;7.10;;;;;;;24.98;59.68;99689.89;1909639;102;26471;-80
2021/07/27 03:20:58;;;;;;;8.98;8.08;;;;;;;25.01;59.67;99689.33;1910328;102;25940;-80
2021/07/27 03:24:59;;;;;;;10.32;7.72;;;;;;;25.03;59.63;99691.47;1910388;102;26001;-81
2021/07/27 03:28:23;;;;;;;11.55;8.03;;;;;;;25.04;59.58;99691.42;1896116;102;25781;-77
2021/07/27 03:31:55;;;;;;;11.68;7.15;;;;;;;25.08;59.57;99688.14;1904367;102;25868;-80
2021/07/27 03:35:39;;;;;;;8.13;6.90;;;;;;;25.10;59.53;99687.58;1940168;99;25640;-77
2021/07/27 03:43:21;;;;;;;9.33;8.28;;;;;;;25.12;59.45;99690.61;1863497;101;25812;-80
2021/07/27 03:46:59;;;;;;;8.28;7.47;;;;;;;25.12;59.53;99688.41;1929691;99;25835;-79
2021/07/27 03:50:47;;;;;;;7.62;6.92;;;;;;;25.12;59.49;99689.28;1959826;98;25806;-79
2021/07/27 03:54:21;;;;;;;8.38;7.42;;;;;;;25.14;59.55;99699.41;1978236;98;25843;-80
2021/07/27 03:58:29;;;;;;;8.30;7.53;;;;;;;25.13;59.48;99700.80;1980431;98;26447;-76
2021/07/27 04:02:15;;;;;;;12.58;8.10;;;;;;;25.12;59.56;99695.08;1956217;98;25863;-76
2021/07/27 04:09:39;;;;;;;9.60;7.75;;;;;;;25.20;59.57;99696.43;2014476;96;25883;-78
2021/07/27 04:13:27;;;;;;;9.15;7.20;;;;;;;25.20;59.44;99707.10;1984587;98;25815;-79
2021/07/27 04:16:59;;;;;;;9.30;8.40;;;;;;;25.23;59.50;99698.09;1981647;98;25785;-79
2021/07/27 04:20:27;;;;;;;8.28;7.37;;;;;;;25.23;59.51;99694.56;1936565;98;25807;-80
2021/07/27 04:24:21;;;;;;;8.88;8.13;;;;;;;25.25;59.60;99693.56;1947077;99;25867;-77
2021/07/27 04:28:13;;;;;;;8.70;7.90;;;;;;;25.28;59.50;99693.42;1983123;99;25764;-77
2021/07/27 04:31:52;;;;;;;9.75;7.12;;;;;;;25.32;59.55;99698.14;1978958;98;25744;-80
2021/07/27 04:35:32;;;;;;;7.67;7.17;;;;;;;25.34;59.50;99702.44;2003367;96;25777;-77
2021/07/27 04:38:56;;;;;;;9.33;7.53;;;;;;;25.39;59.51;99694.23;2013495;96;25909;-79
2021/07/27 04:42:20;;;;;;;7.75;7.25;;;;;;;25.43;59.39;99700.66;2017818;96;25770;-75
2021/07/27 04:46:02;;;;;;;7.08;6.47;;;;;;;25.45;59.37;99707.28;2014387;96;25492;-80
2021/07/27 04:49:34;;;;;;;;;;;;;;;25.48;59.37;99707.58;1999014;97;26194;-75
2021/07/27 04:53:21;;;;;;;9.33;7.53;;;;;;;25.50;59.29;99700.38;1995221;98;25844;-79
2021/07/27 04:56:43;;;;;;;8.30;7.58;;;;;;;25.53;59.37;99700.23;2068683;94;25798;-76
2021/07/27 05:00:31;;;;;;;7.72;7.12;;;;;;;25.61;59.17;99698.89;2069894;94;25803;-78
2021/07/27 05:03:48;;;;;;;10.38;7.45;;;;;;;25.67;59.08;99698.59;2003249;97;25846;-79
2021/07/27 05:07:20;;;;;;;7.40;6.70;;;;;;;25.72;59.05;99693.05;2071056;94;25836;-77
2021/07/27 05:10:50;;;;;;;8.33;7.62;;;;;;;25.77;58.91;99691.47;2078441;90;25785;-78
2021/07/27 05:14:16;;;;;;;7.25;6.67;;;;;;;25.81;58.93;99697.94;2175463;90;25682;-77
2021/07/27 05:17:55;;;;;;;7.83;7.05;;;;;;;25.87;58.82;99686.09;2168060;89;25778;-80
2021/07/27 05:21:20;;;;;;;8.28;7.22;;;;;;;25.93;58.82;99680.92;2167206;90;25272;-79
2021/07/27 05:24:43;;;;;;;11.00;7.90;;;;;;;25.95;58.80;99684.36;2160908;87;25841;-80
2021/07/27 05:28:29;;;;;;;9.98;7.60;;;;;;;25.96;58.89;99684.78;2244053;87;26716;-79
2021/07/27 05:32:07;;;;;;;8.20;7.53;;;;;;;26.00;58.94;99685.01;2242085;87;25961;-80
2021/07/27 05:35:52;;;;;;;7.87;6.97;;;;;;;26.08;58.93;99683.66;2189047;89;25343;-80
2021/07/27 05:39:24;;;;;;;8.55;7.75;;;;;;;26.22;58.89;99689.62;2204374;89;25749;-76
2021/07/27 05:43:03;;;;;;;11.38;7.95;;;;;;;26.37;58.66;99692.84;2182209;88;25763;-81
2021/07/27 05:46:51;;;;;;;;;;;;;;;;;;;;;
2021/07/27 05:54:59;;;;;;;;;;;;;;;;;;;;;
2021/07/27 06:03:38;;;;;;;9.98;8.50;;;;;;;27.02;57.49;99733.53;2000304;97;26192;-79
2021/07/27 06:07:23;;;;;;;8.30;7.45;;;;;;;27.16;57.20;99737.67;1990925;97;26007;-79
2021/07/27 06:11:22;;;;;;;;;;;;;;;27.30;56.92;99736.46;1928560;99;25860;-78
2021/07/27 06:15:00;;;;;;;8.50;7.65;;;;;;;27.43;56.62;99733.94;1847916;103;25940;-79
2021/07/27 06:19:49;;;;;;;;;;;;;;;;;;;;;
2021/07/27 06:24:51;;;;;;;10.38;7.85;;;;;;;27.78;56.02;99741.34;1761539;109;26501;-81
2021/07/27 06:29:00;;;;;;;10.68;7.90;;;;;;;28.09;55.37;99756.97;1694707;113;25592;-79
2021/07/27 06:33:04;;;;;;;8.13;7.30;;;;;;;28.24;55.10;99749.34;1648369;115;25631;-76
2021/07/27 06:36:47;;;;;;;10.95;7.35;;;;;;;28.50;54.82;99756.34;1675205;114;25796;-75
2021/07/27 06:40:28;;;;;;;9.15;8.38;;;;;;;28.82;54.32;99748.13;1628920;117;25909;-79
2021/07/27 06:43:49;;;;;;;9.18;7.78;;;;;;;29.15;53.86;99751.41;1627576;117;25969;-81
2021/07/27 06:47:15;;;;;;;8.43;7.78;;;;;;;29.46;53.24;99758.84;1632600;116;25987;-80
2021/07/27 06:51:11;;;;;;;10.50;7.95;;;;;;;29.84;52.62;99759.07;1630530;117;25958;-80
2021/07/27 06:54:58;;;;;;;8.13;7.53;;;;;;;30.31;51.98;99769.83;1640591;117;25930;-80
2021/07/27 06:58:42;;;;;;;;;;;;;;;30.45;51.20;99795.78;1655315;115;25874;-79
2021/07/27 07:03:04;;;;;;;8.68;7.87;;;;;;;30.28;50.85;99794.23;1686578;114;26423;-76
2021/07/27 07:06:28;;;;;;;8.93;8.08;;;;;;;30.14;51.03;99802.34;1702361;109;26048;-80
2021/07/27 07:10:12;;;;;;;9.35;7.97;;;;;;;30.13;50.92;99806.83;1726001;112;25848;-80
2021/07/27 07:13:45;;;;;;;8.43;7.62;;;;;;;30.45;50.70;99819.13;1727922;109;25909;-78
2021/07/27 07:17:44;;;;;;;11.22;9.23;;;;;;;30.76;50.17;99817.42;1774981;108;25435;-80
2021/07/27 07:29:32;;;;;;;16.85;9.08;;;;;;;30.66;49.85;99812.77;1786779;107;25944;-80
2021/07/27 07:33:08;;;;;;;12.60;9.50;;;;;;;30.93;49.45;99818.95;1735259;111;25877;-74
2021/07/27 07:37:08;;;;;;;12.60;8.65;;;;;;;30.97;49.16;99811.52;1739075;110;26046;-80
2021/07/27 07:40:51;;;;;;;;;;;;;;;;;;;;;
2021/07/27 07:44:19;;;;;;;12.67;9.27;;;;;;;31.06;48.86;99816.25;1690284;113;26576;-79
2021/07/27 07:47:57;;;;;;;10.50;9.50;;;;;;;31.05;48.69;99826.17;1696054;113;25872;-80
2021/07/27 07:51:46;;;;;;;;;;;;;;;;;;;;;
2021/07/27 07:59:44;;;;;;;10.50;9.45;;;;;;;30.20;49.46;99842.76;1654150;116;25772;-80
2021/07/27 08:04:05;;;;;;;;;;;;;;;;;;;;;
2021/07/27 08:07:10;;;;;;;10.68;9.60;;;;;;;29.71;50.24;99855.35;1670984;114;25977;-75
2021/07/27 08:11:24;;;;;;;11.00;9.78;;;;;;;29.50;50.53;99855.73;1777766;106;25843;-80
2021/07/27 08:15:26;;;;;;;12.78;10.65;;;;;;;29.39;50.80;99851.50;1794506;107;25707;-80
2021/07/27 08:23:50;;;;;;;;;;;;;;;;;;;;;
2021/07/27 08:27:19;;;;;;;13.00;10.05;;;;;;;29.23;51.24;99833.27;1834992;105;25903;-78
2021/07/27 08:31:25;;;;;;;;;;;;;;;;;;;;;
2021/07/27 08:35:35;;;;;;;11.12;9.58;;;;;;;29.33;51.25;99803.09;1893050;102;25827;-75
2021/07/27 08:39:49;;;;;;;10.58;9.43;;;;;;;29.41;51.14;99797.22;1899526;102;25931;-76
2021/07/27 08:43:17;;;;;;;10.35;9.45;;;;;;;29.42;51.12;99789.55;1888334;102;25656;-79
2021/07/27 08:47:11;;;;;;;9.30;8.55;;;;;;;29.39;51.15;99796.45;1890005;102;25893;-80
2021/07/27 08:51:16;;;;;;;9.48;8.58;;;;;;;29.34;51.19;99802.61;1886007;102;25786;-81
2021/07/27 08:54:57;;;;;;;10.18;9.10;;;;;;;29.30;51.22;99793.89;1887153;101;25891;-79
2021/07/27 08:58:30;;;;;;;9.35;8.60;;;;;;;29.30;51.29;99796.57;1920851;99;25836;-79
2021/07/27 09:02:47;;;;;;;;;;;;;;;;;;;;;
2021/07/27 09:06:07;;;;;;;9.08;8.25;;;;;;;29.31;51.34;99817.08;1968104;98;25933;-80
2021/07/27 09:09:37;;;;;;;9.20;8.30;;;;;;;29.26;51.42;99820.55;2036191;93;25773;-79
2021/07/27 09:13:23;;;;;;;9.53;8.73;;;;;;;29.33;51.57;99817.86;2008369;94;25521;-80
2021/07/27 09:17:05;;;;;;;8.98;8.38;;;;;;;29.64;51.41;99807.39;2014173;94;25782;-79
2021/07/27 09:25:33;;;;;;;10.65;8.53;;;;;;;30.57;50.60;99816.44;1990483;97;43642;-81
2021/07/27 09:29:09;;;;;;;10.10;9.15;;;;;;;31.20;49.76;99824.70;1986075;97;25953;-81
2021/07/27 09:32:33;;;;;;;8.70;8.10;;;;;;;31.38;49.25;99826.09;1986164;96;25769;-81
2021/07/27 09:35:54;;;;;;;9.75;8.88;;;;;;;31.47;48.92;99826.80;1974046;97;25781;-81
2021/07/27 09:39:27;;;;;;;9.70;8.53;;;;;;;31.69;48.57;99818.48;1981490;97;25770;-79
2021/07/27 09:43:01;;;;;;;8.95;8.15;;;;;;;31.90;48.37;99832.27;1984216;95;25805;-80
2021/07/27 09:46:27;;;;;;;9.00;8.40;;;;;;;32.05;48.09;99837.86;2050322;92;26230;-80
2021/07/27 09:50:07;;;;;;;9.85;8.73;;;;;;;32.23;47.84;99846.40;2077717;93;25678;-76
2021/07/27 09:53:39;;;;;;;9.60;8.73;;;;;;;32.36;47.47;99851.25;2017718;96;25659;-79
2021/07/27 09:56:59;;;;;;;11.28;7.58;;;;;;;32.38;47.28;99849.30;2016492;95;25856;-79
2021/07/27 10:00:25;;;;;;;9.30;8.60;;;;;;;32.35;47.08;99853.58;2040558;94;25410;-80
2021/07/27 10:04:07;;;;;;;9.20;8.43;;;;;;;32.33;46.98;99860.06;2038324;93;25905;-80
2021/07/27 10:07:44;;;;;;;9.15;8.28;;;;;;;32.38;46.87;99866.84;2008157;93;25944;-80
2021/07/27 10:12:03;;;;;;;10.15;9.20;;;;;;;32.82;46.48;99875.25;2077860;93;25304;-80
2021/07/27 10:19:57;;;;;;;8.68;8.00;;;;;;;33.95;45.05;99895.15;2003821;95;25780;-75
2021/07/27 10:24:27;;;;;;;10.72;7.87;;;;;;;34.62;44.05;99898.22;2005216;95;25855;-79
2021/07/27 10:28:00;;;;;;;8.28;7.58;;;;;;;35.22;43.32;99900.24;2031545;95;25819;-75
2021/07/27 10:32:37;;;;;;;;;;;;;;;;;;;;;
2021/07/27 10:36:10;;;;;;;7.65;6.83;;;;;;;36.60;41.45;99902.81;2032718;95;26082;-78
2021/07/27 10:40:24;;;;;;;7.33;6.65;;;;;;;37.35;40.44;99907.95;2018302;95;25936;-76
2021/07/27 10:44:12;;;;;;;7.70;7.20;;;;;;;37.79;39.54;99910.95;2061138;93;25748;-81
2021/07/27 10:48:09;;;;;;;6.92;6.33;;;;;;;38.26;38.58;99916.30;2042281;93;26567;-80
2021/07/27 10:52:05;;;;;;;6.72;6.33;;;;;;;38.58;37.83;99908.64;1977035;98;25878;-79
2021/07/27 11:03:55;;;;;;;6.28;5.87;;;;;;;39.30;36.13;99907.58;2068703;92;25947;-79
2021/07/27 11:07:22;;;;;;;5.85;5.55;;;;;;;39.57;35.72;99903.81;2024930;94;25768;-79
2021/07/27 11:10:42;;;;;;;6.42;5.75;;;;;;;39.80;35.41;99914.19;2026630;94;25736;-79
2021/07/27 11:14:05;;;;;;;5.72;5.42;;;;;;;39.96;34.99;99920.20;2027474;94;25825;-79
2021/07/27 11:17:29;;;;;;;6.10;5.60;;;;;;;40.17;34.57;99921.18;2028035;94;26037;-74
2021/07/27 11:21:05;;;;;;;5.95;5.53;;;;;;;40.14;34.08;99919.59;2028094;95;25952;-79
2021/07/27 11:24:36;;;;;;;5.75;5.35;;;;;;;40.13;33.95;99915.13;2017704;96;25872;-75
2021/07/27 11:27:57;;;;;;;5.55;5.12;;;;;;;40.32;33.83;99910.78;2026620;95;26189;-80
2021/07/27 11:31:46;;;;;;;;;;;;;;;;;;;;;
2021/07/27 11:34:59;;;;;;;6.10;5.60;;;;;;;40.56;33.60;99899.03;1958480;98;25893;-79
2021/07/27 11:38:32;;;;;;;5.78;5.37;;;;;;;40.78;33.43;99896.18;1937129;100;25810;-80
2021/07/27 11:42:01;;;;;;;5.47;5.08;;;;;;;40.92;33.30;99896.00;1899295;102;26004;-76
2021/07/27 11:45:39;;;;;;;6.25;5.47;;;;;;;40.88;33.14;99899.26;1904611;102;26175;-80
2021/07/27 11:49:08;;;;;;;5.40;5.00;;;;;;;40.79;33.03;99885.58;1954353;100;25818;-80
2021/07/27 11:52:29;;;;;;;5.58;5.17;;;;;;;40.91;32.68;99887.47;1953144;100;25898;-80
2021/07/27 11:55:50;;;;;;;6.78;5.22;;;;;;;41.03;32.35;99883.88;1954761;100;26107;-78
2021/07/27 11:59:11;;;;;;;5.37;5.00;;;;;;;41.17;32.08;99886.42;1949256;101;25811;-80
2021/07/27 12:02:53;;;;;;;;;;;;;;;;;;;;;
2021/07/27 12:06:31;;;;;;;5.60;5.10;;;;;;;41.42;31.63;99885.86;1911503;100;25436;-77
2021/07/27 12:10:00;;;;;;;5.08;4.78;;;;;;;41.52;31.35;99883.28;1902069;101;25947;-80
2021/07/27 12:13:46;;;;;;;5.70;5.30;;;;;;;41.64;31.09;99868.69;1959922;98;34804;-76
2021/07/27 12:21:16;;;;;;;4.80;4.50;;;;;;;41.88;30.38;99865.01;1879542;103;25814;-79
2021/07/27 12:24:41;;;;;;;4.80;4.45;;;;;;;41.98;29.99;99857.42;1879341;103;26515;-80
2021/07/27 12:28:11;;;;;;;5.40;5.00;;;;;;;42.04;29.66;99859.96;1881367;102;25741;-75
2021/07/27 12:31:42;;;;;;;6.17;4.75;;;;;;;42.12;29.42;99843.98;1812822;106;25600;-79
2021/07/27 12:35:17;;;;;;;4.53;4.22;;;;;;;42.18;29.25;99834.53;1825059;106;25993;-80
2021/07/27 12:39:03;;;;;;;4.55;4.30;;;;;;;42.21;29.08;99829.20;1832450;105;25833;-76
2021/07/27 12:46:43;;;;;;;4.30;3.90;;;;;;;41.82;29.03;99823.28;1856647;104;25824;-79
2021/07/27 12:50:18;;;;;;;4.00;3.70;;;;;;;41.84;28.87;99826.67;1855652;104;25900;-77
2021/07/27 12:53:41;;;;;;;3.52;3.33;;;;;;;41.80;28.67;99815.75;1855159;104;25851;-78
2021/07/27 12:57:15;;;;;;;3.80;3.50;;;;;;;41.75;28.42;99817.67;1855466;105;25982;-78
2021/07/27 13:00:44;;;;;;;7.15;4.12;;;;;;;41.75;28.38;99814.06;1854139;105;25858;-79
2021/07/27 13:04:05;;;;;;;3.80;3.55;;;;;;;41.72;28.46;99816.66;1845499;105;26169;-79
2021/07/27 13:12:45;;;;;;;;;;;;;;;;;;;;;
2021/07/27 13:16:32;;;;;;;4.00;3.72;;;;;;;41.60;28.42;99806.29;1851769;106;25365;-77
2021/07/27 13:24:11;;;;;;;4.20;3.98;;;;;;;41.48;28.46;99791.65;1951940;99;25891;-80
2021/07/27 13:27:44;;;;;;;4.87;4.47;;;;;;;41.44;28.59;99788.05;1945371;100;26103;-79
2021/07/27 13:31:33;;;;;;;4.15;3.95;;;;;;;41.44;28.70;99782.59;1928152;102;25803;-81
2021/07/27 13:35:35;;;;;;;5.65;5.25;;;;;;;41.39;28.78;99783.62;1927257;101;25819;-77
2021/07/27 13:39:34;;;;;;;6.12;5.33;;;;;;;41.33;28.85;99783.80;1866999;103;27000;-77
2021/07/27 13:43:15;;;;;;;4.80;4.40;;;;;;;41.18;29.03;99775.50;1858858;104;25849;-80
2021/07/27 13:47:09;;;;;;;4.90;4.60;;;;;;;41.11;29.07;99779.97;1853056;104;25865;-80
2021/07/27 13:50:26;;;;;;;5.28;4.95;;;;;;;40.89;29.23;99789.73;1839815;105;25901;-79
2021/07/27 13:54:05;;;;;;;;;;;;;;;;;;;;;
2021/07/27 13:57:31;;;;;;;5.45;5.05;;;;;;;40.69;29.54;99781.05;1784600;107;25718;-78
2021/07/27 14:01:03;;;;;;;5.92;5.53;;;;;;;40.66;29.64;99780.55;1876909;102;25731;-81
2021/07/27 14:04:41;;;;;;;5.80;5.40;;;;;;;40.58;29.69;99783.63;1882305;102;26156;-80
2021/07/27 14:08:06;;;;;;;6.50;6.10;;;;;;;40.45;29.78;99781.05;1861504;102;25864;-79
2021/07/27 14:11:42;;;;;;;5.37;5.08;;;;;;;40.24;29.95;99772.86;1856965;103;25945;-76
2021/07/27 14:15:10;;;;;;;6.12;5.72;;;;;;;40.02;30.19;99783.05;1883807;100;25713;-80
2021/07/27 14:22:19;;;;;;;6.75;6.17;;;;;;;39.58;30.50;99788.20;1903826;100;25845;-79
2021/07/27 14:25:45;;;;;;;6.80;6.40;;;;;;;39.39;30.59;99788.50;1899461;102;25837;-77
2021/07/27 14:29:06;;;;;;;6.10;5.80;;;;;;;39.25;30.69;99795.36;1904959;101;25773;-79
2021/07/27 14:32:27;;;;;;;6.62;6.12;;;;;;;39.10;30.82;99794.28;1905817;101;25973;-75
2021/07/27 14:35:48;;;;;;;6.78;6.17;;;;;;;38.94;30.97;99803.20;1906309;101;25925;-81
2021/07/27 14:39:11;;;;;;;6.30;5.75;;;;;;;38.78;31.19;99798.98;1918406;100;25842;-76
2021/07/27 14:42:32;;;;;;;6.05;5.65;;;;;;;38.60;31.35;99803.97;1943899;99;25799;-81
2021/07/27 14:45:57;;;;;;;6.12;5.72;;;;;;;38.44;31.51;99801.11;1961939;99;25822;-80
2021/07/27 14:49:25;;;;;;;6.35;5.95;;;;;;;38.28;31.68;99805.38;1957767;99;26011;-80
2021/07/27 14:52:46;;;;;;;7.00;6.40;;;;;;;38.14;31.88;99811.39;1962654;98;25867;-80
2021/07/27 14:56:14;;;;;;;6.42;6.03;;;;;;;37.96;32.01;99815.44;1977933;97;25865;-76
2021/07/27 14:59:39;;;;;;;6.80;6.40;;;;;;;37.76;32.17;99817.91;2011380;95;25762;-75
2021/07/27 15:03:06;;;;;;;6.90;6.50;;;;;;;37.50;32.32;99813.70;1993987;97;25795;-79
2021/07/27 15:06:27;;;;;;;7.28;6.12;;;;;;;37.25;32.55;99809.26;2006979;96;26357;-79
2021/07/27 15:09:50;;;;;;;6.80;6.40;;;;;;;37.04;32.74;99814.06;1996919;97;25949;-78
2021/07/27 15:13:19;;;;;;;7.22;6.72;;;;;;;36.86;32.92;99810.73;2157279;89;25681;-81
2021/07/27 15:16:41;;;;;;;6.65;6.17;;;;;;;36.68;33.12;99808.39;2178145;89;25759;-80
2021/07/27 15:20:04;;;;;;;7.33;6.72;;;;;;;36.51;33.28;99799.63;2180835;88;25444;-77
2021/07/27 15:23:44;;;;;;;6.92;6.42;;;;;;;36.37;33.45;99800.39;2178283;88;26488;-79
2021/07/27 15:30:42;;;;;;;7.15;6.60;;;;;;;36.13;33.73;99802.19;2116406;90;25973;-79
2021/07/27 15:34:24;;;;;;;6.70;6.28;;;;;;;36.00;33.91;99801.58;2122761;90;25782;-76
2021/07/27 15:41:50;;;;;;;7.28;6.78;;;;;;;35.71;34.31;99792.91;2122738;91;25745;-80
2021/07/27 15:45:21;;;;;;;7.22;6.67;;;;;;;35.63;34.47;99802.22;2119286;91;25945;-76
2021/07/27 15:49:09;;;;;;;;;;;;;;;;;;;;;
2021/07/27 15:52:48;;;;;;;7.42;6.92;;;;;;;35.41;34.71;99802.42;2058522;92;26319;-77
2021/07/27 15:56:29;;;;;;;7.55;6.72;;;;;;;35.34;34.83;99794.48;2076964;93;26444;-80
2021/07/27 16:00:12;;;;;;;8.13;7.33;;;;;;;35.30;34.90;99788.95;2077272;93;25752;-76
2021/07/27 16:03:33;;;;;;;6.53;6.05;;;;;;;35.25;34.96;99785.31;2088469;94;25903;-79
2021/07/27 16:07:28;;;;;;;6.55;6.15;;;;;;;35.23;35.03;99777.30;2066398;94;25712;-80
2021/07/27 16:11:09;;;;;;;7.70;7.08;;;;;;;35.22;35.10;99780.16;1997786;93;25831;-80
2021/07/27 16:14:37;;;;;;;7.55;6.87;;;;;;;35.18;35.17;99780.08;2018734;95;25883;-80
2021/07/27 16:18:07;;;;;;;7.15;6.45;;;;;;;35.12;35.29;99774.70;2019203;95;25294;-78
2021/07/27 16:29:17;;;;;;;8.00;7.40;;;;;;;34.92;35.59;99761.52;1991036;97;25681;-80
2021/07/27 16:32:54;;;;;;;7.22;6.35;;;;;;;34.85;35.71;99759.50;2001043;98;25860;-80
2021/07/27 16:36:44;;;;;;;7.37;6.72;;;;;;;34.78;35.78;99755.97;1992840;98;25749;-80
2021/07/27 16:41:06;;;;;;;;;;;;;;;;;;;;;
2021/07/27 16:44:44;;;;;;;7.10;6.60;;;;;;;34.64;35.96;99762.23;2023951;97;25756;-79
2021/07/27 16:48:27;;;;;;;6.53;6.03;;;;;;;34.55;36.03;99766.59;1987622;97;25524;-76
2021/07/27 16:52:28;;;;;;;6.12;5.62;;;;;;;34.46;36.04;99765.98;2017956;95;25824;-75
2021/07/27 17:07:11;;;;;;;6.08;5.05;;;;;;;34.10;36.08;99781.67;1876194;103;25918;-81
2021/07/27 17:11:17;;;;;;;;;;;;;;;;;;;;;
2021/07/27 17:14:54;;;;;;;5.53;5.22;;;;;;;33.83;36.14;99772.14;1864767;105;25956;-76
2021/07/27 17:18:56;;;;;;;5.08;4.78;;;;;;;33.74;36.26;99773.40;1860438;106;25593;-79
2021/07/27 17:22:29;;;;;;;5.40;4.95;;;;;;;33.64;36.31;99769.23;1815201;106;25853;-79
2021/07/27 17:26:12;;;;;;;4.70;4.40;;;;;;;33.54;36.35;99768.28;1809069;109;25942;-80
2021/07/27 17:30:02;;;;;;;5.47;5.08;;;;;;;33.42;36.45;99766.06;1811851;109;25876;-79
2021/07/27 17:33:33;;;;;;;5.62;5.22;;;;;;;33.29;36.63;99769.40;1810158;109;25776;-80
2021/07/27 17:37:23;;;;;;;;;;;;;;;;;;;;;
2021/07/27 17:41:10;;;;;;;7.45;5.55;;;;;;;33.06;36.94;99772.59;1834672;106;25893;-80
2021/07/27 17:52:38;;;;;;;6.83;6.33;;;;;;;32.67;37.64;99775.59;1737364;109;25482;-80
2021/07/27 17:56:26;;;;;;;;;;;;;;;;;;;;;
2021/07/27 17:59:51;;;;;;;6.08;5.45;;;;;;;32.45;38.17;99777.73;1721921;111;26211;-74
2021/07/27 18:04:07;;;;;;;8.20;6.22;;;;;;;32.35;38.35;99774.00;1754688;108;25893;-80
2021/07/27 18:07:42;;;;;;;6.25;5.80;;;;;;;32.24;38.57;99771.27;1786360;108;25926;-76
2021/07/27 18:11:19;;;;;;;6.17;5.78;;;;;;;32.12;38.76;99770.35;1783593;108;25792;-81
2021/07/27 18:15:30;;;;;;;5.75;5.35;;;;;;;32.03;39.01;99772.42;1783981;108;26599;-76
2021/07/27 18:18:58;;;;;;;9.25;5.62;;;;;;;31.97;39.18;99772.87;1801979;107;25602;-81
2021/07/27 18:22:34;;;;;;;6.85;6.35;;;;;;;31.90;39.29;99771.13;1846799;100;34858;-79
2021/07/27 18:26:06;;;;;;;6.05;5.55;;;;;;;31.84;39.47;99763.46;1981060;96;25782;-78
2021/07/27 18:29:46;;;;;;;6.12;5.60;;;;;;;31.73;39.57;99765.61;2022125;95;25795;-80
2021/07/27 18:33:17;;;;;;;6.00;5.60;;;;;;;31.65;39.75;99766.65;2031787;95;25860;-75
2021/07/27 18:37:29;;;;;;;6.50;5.17;;;;;;;31.59;39.88;99770.28;2030888;94;25921;-79
2021/07/27 18:40:49;;;;;;;6.42;5.72;;;;;;;31.50;39.99;99764.61;2028396;95;25826;-75
2021/07/27 18:44:29;;;;;;;7.15;6.05;;;;;;;31.40;40.20;99766.25;2024420;94;25702;-79
2021/07/27 18:48:09;;;;;;;8.20;6.28;;;;;;;31.34;40.37;99763.14;2023722;94;25817;-75
2021/07/27 18:51:37;;;;;;;6.22;5.72;;;;;;;31.28;40.51;99763.06;2035247;96;25896;-80
2021/07/27 18:55:26;;;;;;;6.35;5.75;;;;;;;31.21;40.61;99756.41;2056156;93;25598;-81
2021/07/27 18:59:32;;;;;;;6.30;5.85;;;;;;;31.15;40.71;99769.84;2082891;93;25862;-80
2021/07/27 19:03:05;;;;;;;6.47;6.00;;;;;;;31.08;40.81;99769.88;2084041;93;25815;-78
2021/07/27 19:06:36;;;;;;;9.20;5.97;;;;;;;31.02;40.99;99773.89;2082746;93;25733;-80
2021/07/27 19:10:04;;;;;;;13.10;6.12;;;;;;;30.95;41.02;99775.75;2082816;93;25920;-80
2021/07/27 19:13:36;;;;;;;8.05;6.05;;;;;;;30.86;41.18;99775.94;2082811;93;26437;-76
2021/07/27 19:17:19;;;;;;;6.17;5.70;;;;;;;30.78;41.48;99779.17;2123074;91;26066;-80
2021/07/27 19:20:57;;;;;;;7.70;6.20;;;;;;;30.71;41.62;99777.85;2118925;91;25788;-78
2021/07/27 19:24:33;;;;;;;9.83;6.33;;;;;;;30.67;41.82;99787.56;2020975;96;25761;-79
2021/07/27 19:28:13;;;;;;;8.95;6.47;;;;;;;30.56;42.08;99782.94;2020038;96;25808;-79
2021/07/27 19:31:33;;;;;;;7.90;6.15;;;;;;;30.46;42.35;99779.16;2025275;96;25911;-78
2021/07/27 19:34:57;;;;;;;7.72;6.45;;;;;;;30.42;42.59;99782.54;2034270;95;25753;-80
2021/07/27 19:38:18;;;;;;;8.00;6.60;;;;;;;30.40;42.70;99780.91;2036573;95;25872;-80
2021/07/27 19:41:54;;;;;;;7.58;6.87;;;;;;;30.40;42.79;99787.15;2017235;96;25729;-75
2021/07/27 19:53:03;;;;;;;7.62;6.92;;;;;;;30.22;43.24;99800.02;2049626;95;25720;-80
2021/07/27 19:56:41;;;;;;;7.35;6.75;;;;;;;30.17;43.40;99801.25;2050293;95;25746;-76
2021/07/27 20:00:31;;;;;;;8.70;7.85;;;;;;;30.10;43.60;99805.72;2049744;95;26565;-75
2021/07/27 20:04:36;;;;;;;12.98;8.38;;;;;;;30.07;43.79;99809.06;2039530;95;25711;-78
2021/07/27 20:08:22;;;;;;;;;;;;;;;;;;;;;
2021/07/27 20:12:06;;;;;;;9.70;8.75;;;;;;;29.95;44.14;99815.27;2021232;95;25765;-79
2021/07/27 20:15:39;;;;;;;14.15;9.40;;;;;;;29.90;44.29;99823.62;2017314;96;25705;-76
2021/07/27 20:19:00;;;;;;;9.30;8.25;;;;;;;29.88;44.36;99825.08;2029653;92;26936;-80
2021/07/27 20:22:46;;;;;;;10.10;9.08;;;;;;;29.84;44.47;99823.56;2113525;92;25634;-81
2021/07/27 20:26:15;;;;;;;10.85;9.85;;;;;;;29.82;44.60;99825.95;2111845;91;25360;-79
2021/07/27 20:29:57;;;;;;;;;;;;;;;29.79;44.72;99826.16;2116905;92;25998;-76
2021/07/27 20:33:28;;;;;;;12.33;10.18;;;;;;;29.77;44.91;99829.44;2113628;92;25691;-80
2021/07/27 20:36:54;;;;;;;9.45;8.65;;;;;;;29.68;45.01;99826.86;2110755;91;25281;-79
2021/07/27 20:40:35;;;;;;;9.83;8.95;;;;;;;29.57;45.21;99828.00;2111803;92;25786;-76
2021/07/27 20:44:17;;;;;;;10.38;9.40;;;;;;;29.47;45.45;99830.89;2113908;91;25758;-77